Time;durP1;ratioP1;P1;durP2;ratioP2;P2;SDS_P1;SDS_P2;PMS_P1;PMS_P2;Temp;Humidity;BMP_temperature;BMP_pressure;BME280_temperature;BME280_humidity;BME280_pressure;Samples;Min_cycle;Max_cycle;Signal;HPM_P1;HPM_P2
2022/02/16 00:01:15;;;;;;;2.60;2.40;;;9.40;90.20;;;;;;5055625;28;20031;-35
2022/02/16 00:03:40;;;;;;;2.83;2.63;;;9.40;90.20;;;;;;5055887;28;20025;-35
2022/02/16 00:06:06;;;;;;;2.83;2.50;;;9.40;90.20;;;;;;5055610;28;20028;-36
2022/02/16 00:08:32;;;;;;;3.00;2.60;;;9.40;90.20;;;;;;5055306;28;20025;-36
2022/02/16 00:10:57;;;;;;;2.88;2.60;;;9.50;90.20;;;;;;5055381;28;20096;-36
2022/02/16 00:13:23;;;;;;;3.15;2.92;;;9.50;90.20;;;;;;5055372;28;20408;-35
2022/02/16 00:15:48;;;;;;;2.75;2.25;;;9.50;90.20;;;;;;5055291;28;20100;-36
2022/02/16 00:18:14;;;;;;;4.70;2.28;;;9.40;90.20;;;;;;5055220;28;20032;-36
2022/02/16 00:20:40;;;;;;;2.80;2.42;;;9.40;90.20;;;;;;5055230;28;20025;-36
2022/02/16 00:23:06;;;;;;;2.70;2.50;;;9.40;90.20;;;;;;5055181;28;20033;-36
2022/02/16 00:25:32;;;;;;;2.65;2.42;;;9.40;90.20;;;;;;5055172;28;20493;-36
2022/02/16 00:27:57;;;;;;;2.60;2.40;;;9.50;90.20;;;;;;5053920;28;20025;-36
2022/02/16 00:30:23;;;;;;;2.67;2.47;;;9.50;90.20;;;;;;5054862;28;20025;-35
2022/02/16 00:32:52;;;;;;;3.13;2.70;;;9.50;90.20;;;;;;5054883;28;20032;-35
2022/02/16 00:35:17;;;;;;;2.63;2.42;;;9.50;90.20;;;;;;5055045;28;20053;-36
2022/02/16 00:37:43;;;;;;;3.45;3.00;;;9.50;90.20;;;;;;5054918;28;20033;-36
2022/02/16 00:40:09;;;;;;;2.60;2.40;;;9.50;90.20;;;;;;5055081;28;20036;-36
2022/02/16 00:42:35;;;;;;;2.60;2.40;;;9.50;90.20;;;;;;5054691;28;20501;-35
2022/02/16 00:45:00;;;;;;;3.30;3.00;;;9.50;90.20;;;;;;5054761;28;20076;-37
2022/02/16 00:47:26;;;;;;;3.35;3.05;;;9.50;90.20;;;;;;5053300;28;20475;-36
2022/02/16 00:49:51;;;;;;;3.05;2.85;;;9.50;90.20;;;;;;5054768;28;20025;-36
2022/02/16 00:52:22;;;;;;;3.72;3.30;;;9.60;90.20;;;;;;5054578;28;20032;-36
2022/02/16 00:54:48;;;;;;;3.63;3.33;;;9.50;90.20;;;;;;5054824;28;20048;-36
2022/02/16 00:57:13;;;;;;;3.47;3.17;;;9.60;90.20;;;;;;5054493;28;20472;-36
2022/02/16 00:59:39;;;;;;;3.97;3.35;;;9.60;90.20;;;;;;5054523;28;20112;-36
2022/02/16 01:02:04;;;;;;;4.82;3.80;;;9.60;90.20;;;;;;5054373;28;20028;-36
2022/02/16 01:04:30;;;;;;;4.70;3.45;;;9.60;90.20;;;;;;5054350;28;20029;-36
2022/02/16 01:06:56;;;;;;;3.97;3.67;;;9.60;90.30;;;;;;5054299;28;20021;-36
2022/02/16 01:09:21;;;;;;;4.30;3.90;;;9.60;90.30;;;;;;5054638;28;20013;-36
2022/02/16 01:11:47;;;;;;;4.30;3.70;;;9.60;90.30;;;;;;5054234;28;20021;-37
2022/02/16 01:14:13;;;;;;;4.35;3.97;;;9.60;90.20;;;;;;5054523;28;20032;-35
2022/02/16 01:16:39;;;;;;;4.38;3.97;;;9.60;90.20;;;;;;5054352;28;20024;-36
2022/02/16 01:19:05;;;;;;;5.47;4.50;;;9.60;90.20;;;;;;5054203;28;20477;-36
2022/02/16 01:21:31;;;;;;;5.03;4.10;;;9.60;90.20;;;;;;5054004;28;20032;-36
2022/02/16 01:23:56;;;;;;;4.25;3.85;;;9.60;90.20;;;;;;5053996;28;20025;-36
2022/02/16 01:26:23;;;;;;;4.93;4.43;;;9.60;90.20;;;;;;5054029;28;20392;-36
2022/02/16 01:28:49;;;;;;;7.32;4.93;;;9.60;90.20;;;;;;5052485;28;20029;-36
2022/02/16 01:31:15;;;;;;;5.97;4.55;;;9.60;90.20;;;;;;5053869;28;20024;-37
2022/02/16 01:33:40;;;;;;;5.22;4.30;;;9.60;90.20;;;;;;5052459;28;20025;-36
2022/02/16 01:36:06;;;;;;;4.57;4.18;;;9.60;90.20;;;;;;5053814;28;20063;-42
2022/02/16 01:38:33;;;;;;;4.75;4.30;;;9.70;90.30;;;;;;5053714;28;20056;-35
2022/02/16 01:40:58;;;;;;;5.60;4.57;;;9.60;90.50;;;;;;5053713;28;20021;-36
2022/02/16 01:43:24;;;;;;;5.85;4.30;;;9.70;90.30;;;;;;5052934;28;20052;-36
2022/02/16 01:45:50;;;;;;;5.55;3.80;;;9.70;90.30;;;;;;5053638;28;20102;-39
2022/02/16 01:48:15;;;;;;;4.03;3.63;;;9.70;90.30;;;;;;5053452;28;20025;-39
2022/02/16 01:50:41;;;;;;;4.90;4.07;;;9.70;90.30;;;;;;5053522;28;20021;-40
2022/02/16 01:53:07;;;;;;;4.38;3.70;;;9.70;90.30;;;;;;5053594;28;20465;-39
2022/02/16 01:55:32;;;;;;;5.40;3.83;;;9.70;90.30;;;;;;5053416;28;20037;-39
2022/02/16 01:58:00;;;;;;;5.95;4.53;;;9.70;90.30;;;;;;5052238;28;20158;-39
2022/02/16 02:00:26;;;;;;;4.53;4.07;;;9.70;90.30;;;;;;5053285;28;20025;-39
2022/02/16 02:02:52;;;;;;;4.40;3.67;;;9.70;90.30;;;;;;5053336;28;20078;-39
2022/02/16 02:05:17;;;;;;;5.25;4.25;;;9.70;90.30;;;;;;5053292;28;20025;-39
2022/02/16 02:07:43;;;;;;;5.03;4.07;;;9.70;90.40;;;;;;5052026;28;20032;-39
2022/02/16 02:10:10;;;;;;;4.82;4.05;;;9.70;90.40;;;;;;5051620;28;20025;-39
2022/02/16 02:12:48;;;;;;;4.95;4.45;;;9.70;90.40;;;;;;5053181;28;20097;-39
2022/02/16 02:15:13;;;;;;;6.10;4.22;;;9.70;90.40;;;;;;5051495;28;20025;-39
2022/02/16 02:17:39;;;;;;;6.10;4.43;;;9.70;90.30;;;;;;5052841;28;20499;-39
2022/02/16 02:20:26;;;;;;;5.72;4.80;;;9.70;90.30;;;;;;5051592;28;20017;-39
2022/02/16 02:22:52;;;;;;;6.68;4.80;;;9.70;90.40;;;;;;5052477;28;20040;-39
2022/02/16 02:25:19;;;;;;;6.03;4.43;;;9.70;90.40;;;;;;5052724;28;20021;-39
2022/02/16 02:27:45;;;;;;;4.35;3.95;;;9.70;90.40;;;;;;5052825;28;20029;-39
2022/02/16 02:30:11;;;;;;;5.35;4.10;;;9.70;90.40;;;;;;5051381;28;20024;-39
2022/02/16 02:32:45;;;;;;;4.30;3.88;;;9.70;90.40;;;;;;5052613;28;20021;-39
2022/02/16 02:35:11;;;;;;;;;;;9.80;90.40;;;;;;5053193;28;20032;-39
2022/02/16 02:37:41;;;;;;;5.72;3.60;;;9.80;90.40;;;;;;5051185;28;19950;-39
2022/02/16 02:40:08;;;;;;;4.40;3.47;;;9.80;90.30;;;;;;5052747;28;20490;-42
2022/02/16 02:42:38;;;;;;;4.15;3.53;;;9.80;90.30;;;;;;5052527;28;20045;-39
2022/02/16 02:45:06;;;;;;;4.10;3.40;;;9.80;90.30;;;;;;5052930;28;20029;-39
2022/02/16 02:47:32;;;;;;;4.60;3.40;;;9.80;90.30;;;;;;5052705;28;20481;-38
2022/02/16 02:49:58;;;;;;;3.80;3.40;;;9.80;90.30;;;;;;5052618;28;20476;-39
2022/02/16 02:52:23;;;;;;;4.15;3.17;;;9.80;90.30;;;;;;5052751;28;20028;-38
2022/02/16 02:54:49;;;;;;;3.88;3.20;;;9.80;90.30;;;;;;5053357;28;20380;-38
2022/02/16 02:57:14;;;;;;;4.45;3.40;;;9.80;90.30;;;;;;5056784;28;20423;-39
2022/02/16 02:59:40;;;;;;;4.07;3.22;;;9.80;90.30;;;;;;5056681;28;20025;-39
2022/02/16 03:02:06;;;;;;;4.15;3.40;;;9.80;90.60;;;;;;5055360;28;20048;-39
2022/02/16 03:04:31;;;;;;;4.55;3.50;;;9.90;90.40;;;;;;5056612;28;20032;-39
2022/02/16 03:06:57;;;;;;;4.18;3.38;;;9.80;90.30;;;;;;5056450;28;20017;-39
2022/02/16 03:09:22;;;;;;;5.15;3.40;;;9.80;90.30;;;;;;5056934;28;20518;-40
2022/02/16 03:11:48;;;;;;;3.47;3.13;;;9.90;90.30;;;;;;5056589;28;20029;-39
2022/02/16 03:14:13;;;;;;;4.00;3.03;;;9.90;90.40;;;;;;5056376;28;20021;-39
2022/02/16 03:16:39;;;;;;;3.20;2.90;;;9.80;90.30;;;;;;5056393;28;20028;-38
2022/02/16 03:19:05;;;;;;;3.45;2.83;;;9.90;90.40;;;;;;5056375;28;20053;-39
2022/02/16 03:21:31;;;;;;;4.57;3.10;;;9.90;90.60;;;;;;5056419;28;20053;-39
2022/02/16 03:23:56;;;;;;;4.00;3.22;;;9.90;90.40;;;;;;5056249;28;20103;-39
2022/02/16 03:26:22;;;;;;;3.72;3.20;;;9.80;90.30;;;;;;5056135;28;20033;-39
2022/02/16 03:28:48;;;;;;;5.05;3.10;;;9.90;90.40;;;;;;5056239;28;20452;-39
2022/02/16 03:31:14;;;;;;;4.85;3.22;;;9.90;90.40;;;;;;5056150;28;20021;-39
2022/02/16 03:33:40;;;;;;;6.18;3.25;;;9.90;90.40;;;;;;5056121;28;20074;-39
2022/02/16 03:36:05;;;;;;;4.05;3.10;;;9.80;90.40;;;;;;5056340;28;20104;-40
2022/02/16 03:38:31;;;;;;;3.60;3.08;;;9.90;90.50;;;;;;5054735;28;20473;-39
2022/02/16 03:40:57;;;;;;;4.10;3.20;;;9.80;90.40;;;;;;5055918;28;20029;-40
2022/02/16 03:43:22;;;;;;;3.35;3.05;;;9.90;90.50;;;;;;5055937;28;20131;-39
2022/02/16 03:45:48;;;;;;;3.58;2.80;;;9.90;90.50;;;;;;5056228;28;20025;-39
2022/02/16 03:48:14;;;;;;;4.70;2.80;;;9.80;90.40;;;;;;5055765;28;20025;-40
2022/02/16 03:50:40;;;;;;;4.15;2.60;;;9.80;90.40;;;;;;5054558;28;20013;-40
2022/02/16 03:53:06;;;;;;;3.35;2.97;;;9.90;90.50;;;;;;5055669;28;20504;-39
2022/02/16 03:55:31;;;;;;;3.15;2.60;;;9.90;90.50;;;;;;5055522;28;20075;-39
2022/02/16 03:57:57;;;;;;;3.22;2.92;;;9.90;90.40;;;;;;5055439;28;20029;-39
2022/02/16 04:00:23;;;;;;;3.40;2.70;;;9.90;90.40;;;;;;5055486;28;20029;-39
2022/02/16 04:02:49;;;;;;;3.03;2.47;;;9.90;90.40;;;;;;5055698;28;20079;-39
2022/02/16 04:05:15;;;;;;;3.55;2.70;;;9.80;90.40;;;;;;5055008;28;20025;-39
2022/02/16 04:07:40;;;;;;;4.15;2.85;;;9.90;90.40;;;;;;5054975;28;20063;-39
2022/02/16 04:10:06;;;;;;;2.85;2.55;;;9.80;90.40;;;;;;5055252;28;20021;-39
2022/02/16 04:12:32;;;;;;;3.40;2.50;;;9.80;90.40;;;;;;5055356;28;20021;-39
2022/02/16 04:14:58;;;;;;;3.13;2.50;;;9.80;90.40;;;;;;5055318;28;20028;-39
2022/02/16 04:17:23;;;;;;;3.35;2.50;;;9.80;90.50;;;;;;5055184;28;20469;-38
2022/02/16 04:19:49;;;;;;;4.55;2.53;;;9.80;90.50;;;;;;5055120;28;20033;-39
2022/02/16 04:22:16;;;;;;;3.08;2.40;;;9.80;90.50;;;;;;5055398;28;20143;-39
2022/02/16 04:24:43;;;;;;;2.80;2.38;;;9.80;90.50;;;;;;5055217;28;20040;-39
2022/02/16 04:27:09;;;;;;;3.13;2.03;;;9.80;90.50;;;;;;5054847;28;20032;-40
2022/02/16 04:29:34;;;;;;;2.45;2.20;;;9.80;90.50;;;;;;5055046;28;20029;-39
2022/02/16 04:32:00;;;;;;;3.17;2.00;;;9.80;90.50;;;;;;5054855;28;20018;-39
2022/02/16 04:34:25;;;;;;;2.38;2.17;;;9.90;90.50;;;;;;5055108;28;20099;-38
2022/02/16 04:36:51;;;;;;;2.72;1.90;;;9.80;90.50;;;;;;5053361;28;20025;-39
2022/02/16 04:39:16;;;;;;;3.17;2.00;;;9.80;90.50;;;;;;5054615;28;20437;-39
2022/02/16 04:41:42;;;;;;;3.17;2.30;;;9.80;90.50;;;;;;5054953;28;20426;-39
2022/02/16 04:44:08;;;;;;;2.40;2.20;;;9.80;90.50;;;;;;5054597;28;20041;-39
2022/02/16 04:46:34;;;;;;;2.22;1.90;;;9.80;90.50;;;;;;5054782;28;20025;-38
2022/02/16 04:48:59;;;;;;;2.00;1.80;;;9.90;90.50;;;;;;5054423;28;20409;-42
2022/02/16 04:51:25;;;;;;;2.25;2.05;;;9.80;90.50;;;;;;5054797;28;20476;-38
2022/02/16 04:53:50;;;;;;;2.38;2.15;;;9.90;90.50;;;;;;5054415;28;20506;-39
2022/02/16 04:56:18;;;;;;;2.15;1.95;;;9.90;90.50;;;;;;5054435;28;20083;-38
2022/02/16 04:58:44;;;;;;;2.75;2.28;;;9.80;90.50;;;;;;5054468;28;20021;-39
2022/02/16 05:01:10;;;;;;;1.73;1.63;;;9.90;90.50;;;;;;5054293;28;20021;-38
2022/02/16 05:03:36;;;;;;;3.08;2.20;;;9.90;90.50;;;;;;5054211;28;20029;-39
2022/02/16 05:06:01;;;;;;;2.53;2.30;;;9.90;90.50;;;;;;5054305;28;20485;-39
2022/02/16 05:08:27;;;;;;;2.78;2.42;;;9.90;90.50;;;;;;5054107;28;20032;-38
2022/02/16 05:10:52;;;;;;;2.50;2.25;;;9.90;90.50;;;;;;5052870;28;20025;-39
2022/02/16 05:13:18;;;;;;;2.60;2.40;;;9.90;90.50;;;;;;5054126;28;20021;-39
2022/02/16 05:15:44;;;;;;;2.88;2.30;;;9.90;90.50;;;;;;5053942;28;20036;-39
2022/02/16 05:18:09;;;;;;;2.55;2.00;;;9.90;90.50;;;;;;5053112;28;20381;-40
2022/02/16 05:20:35;;;;;;;2.10;1.90;;;9.90;90.50;;;;;;5054084;28;20423;-39
2022/02/16 05:23:04;;;;;;;2.78;2.20;;;9.90;90.50;;;;;;5054059;28;20060;-38
2022/02/16 05:25:30;;;;;;;2.65;2.45;;;9.90;90.50;;;;;;5054226;28;20507;-40
2022/02/16 05:27:55;;;;;;;3.55;2.40;;;9.90;90.50;;;;;;5054011;28;20481;-39
2022/02/16 05:30:21;;;;;;;2.40;2.20;;;9.90;90.50;;;;;;5053796;28;20020;-39
2022/02/16 05:32:47;;;;;;;3.10;2.53;;;9.90;90.60;;;;;;5053699;28;20476;-39
2022/02/16 05:35:12;;;;;;;3.17;2.28;;;10.00;90.60;;;;;;5053812;28;20028;-40
2022/02/16 05:37:38;;;;;;;3.38;2.25;;;9.90;90.60;;;;;;5053724;28;20107;-39
2022/02/16 05:40:05;;;;;;;3.60;2.40;;;10.00;90.70;;;;;;5053922;28;20075;-39
2022/02/16 05:42:30;;;;;;;2.28;2.17;;;9.90;90.60;;;;;;5051990;28;20044;-40
2022/02/16 05:44:56;;;;;;;2.13;2.03;;;9.90;90.70;;;;;;5053500;28;20059;-39
2022/02/16 05:47:21;;;;;;;2.00;1.90;;;10.00;90.70;;;;;;5053609;28;20029;-37
2022/02/16 05:49:47;;;;;;;2.42;2.22;;;10.00;90.70;;;;;;5053339;28;20043;-39
2022/02/16 05:52:13;;;;;;;2.40;2.20;;;9.90;90.70;;;;;;5053628;28;20087;-39
2022/02/16 05:54:38;;;;;;;2.30;2.10;;;10.00;90.70;;;;;;5052218;28;20104;-38
2022/02/16 05:57:05;;;;;;;2.38;2.05;;;9.90;90.70;;;;;;5053350;28;20031;-39
2022/02/16 05:59:31;;;;;;;1.90;1.80;;;10.00;90.80;;;;;;5053477;28;20017;-40
2022/02/16 06:02:02;;;;;;;2.58;2.38;;;9.90;90.70;;;;;;5053349;28;20032;-39
2022/02/16 06:04:32;;;;;;;2.97;2.10;;;9.90;90.80;;;;;;5053249;28;20032;-38
2022/02/16 06:06:58;;;;;;;2.65;1.90;;;10.00;90.80;;;;;;5053112;28;20025;-39
2022/02/16 06:09:23;;;;;;;1.95;1.70;;;10.00;90.80;;;;;;5051919;28;20024;-39
2022/02/16 06:11:49;;;;;;;1.88;1.77;;;10.00;90.80;;;;;;5053107;28;20070;-39
2022/02/16 06:14:14;;;;;;;7.88;2.38;;;9.90;90.80;;;;;;5053107;28;20549;-39
2022/02/16 06:16:40;;;;;;;1.85;1.70;;;10.00;90.80;;;;;;5053088;28;20441;-38
2022/02/16 06:19:06;;;;;;;2.35;2.15;;;10.00;90.90;;;;;;5053084;28;20033;-38
2022/02/16 06:21:32;;;;;;;2.10;1.90;;;10.00;90.90;;;;;;5053054;28;20021;-39
2022/02/16 06:23:57;;;;;;;2.10;1.90;;;10.00;90.90;;;;;;5053117;28;20485;-38
2022/02/16 06:26:23;;;;;;;2.00;1.90;;;10.00;90.90;;;;;;5053114;28;20017;-39
2022/02/16 06:28:48;;;;;;;2.22;2.10;;;10.00;91.00;;;;;;5052600;28;20500;-40
2022/02/16 06:31:14;;;;;;;1.92;1.83;;;10.00;91.00;;;;;;5052958;28;20021;-40
2022/02/16 06:33:40;;;;;;;1.80;1.70;;;10.00;91.00;;;;;;5052773;28;20025;-40
2022/02/16 06:36:05;;;;;;;1.80;1.70;;;10.00;91.00;;;;;;5052910;28;20088;-40
2022/02/16 06:38:32;;;;;;;2.00;1.90;;;10.00;91.00;;;;;;5051426;28;20048;-39
2022/02/16 06:40:57;;;;;;;1.80;1.70;;;10.00;91.00;;;;;;5052738;28;20107;-39
2022/02/16 06:43:23;;;;;;;1.70;1.60;;;10.00;91.00;;;;;;5052587;28;20123;-39
2022/02/16 06:45:49;;;;;;;1.98;1.88;;;10.00;91.00;;;;;;5052701;28;20049;-40
2022/02/16 06:48:14;;;;;;;2.28;2.08;;;10.00;91.10;;;;;;5052701;28;20515;-40
2022/02/16 06:50:40;;;;;;;2.00;1.90;;;10.00;91.10;;;;;;5052687;28;20095;-40
2022/02/16 06:53:07;;;;;;;1.95;1.85;;;10.00;91.10;;;;;;5052770;28;20017;-40
2022/02/16 06:55:33;;;;;;;1.80;1.70;;;10.00;91.10;;;;;;5052976;28;20033;-39
2022/02/16 06:57:58;;;;;;;2.10;2.00;;;10.00;91.10;;;;;;5052706;28;20060;-39
2022/02/16 07:00:24;;;;;;;1.65;1.55;;;10.10;91.20;;;;;;5052518;28;20064;-39
2022/02/16 07:02:50;;;;;;;2.03;1.92;;;10.10;91.20;;;;;;5052817;28;20028;-40
2022/02/16 07:05:15;;;;;;;1.70;1.60;;;10.10;91.30;;;;;;5052492;28;20368;-40
2022/02/16 07:07:41;;;;;;;1.65;1.40;;;10.10;91.30;;;;;;5052337;28;20474;-40
2022/02/16 07:10:07;;;;;;;1.80;1.70;;;10.10;91.30;;;;;;5052331;28;20052;-40
2022/02/16 07:12:35;;;;;;;1.73;1.63;;;10.10;91.30;;;;;;5050976;28;20014;-39
2022/02/16 07:15:01;;;;;;;2.33;1.45;;;10.10;91.30;;;;;;5052375;28;20025;-40
2022/02/16 07:17:26;;;;;;;2.38;1.80;;;10.10;91.30;;;;;;5052265;28;20036;-38
2022/02/16 07:19:52;;;;;;;1.60;1.50;;;10.20;91.60;;;;;;5051055;28;20031;-39
2022/02/16 07:22:18;;;;;;;1.50;1.40;;;10.10;91.30;;;;;;5052667;28;20489;-39
2022/02/16 07:24:43;;;;;;;1.92;1.77;;;10.20;91.40;;;;;;5052401;28;20040;-40
2022/02/16 07:27:09;;;;;;;1.40;1.30;;;10.20;91.40;;;;;;5052535;28;20021;-39
2022/02/16 07:29:34;;;;;;;1.65;1.55;;;10.20;91.40;;;;;;5050917;28;20376;-39
2022/02/16 07:32:00;;;;;;;1.52;1.42;;;10.20;91.40;;;;;;5052189;28;20024;-40
2022/02/16 07:34:27;;;;;;;3.80;1.63;;;10.20;91.50;;;;;;5052229;28;20049;-38
2022/02/16 07:36:53;;;;;;;1.70;1.60;;;10.20;91.40;;;;;;5052483;28;20476;-38
2022/02/16 07:39:19;;;;;;;1.50;1.40;;;10.20;91.50;;;;;;5052489;28;20025;-39
2022/02/16 07:41:45;;;;;;;1.33;1.20;;;10.20;91.50;;;;;;5054539;28;20021;-38
2022/02/16 07:44:10;;;;;;;1.50;1.40;;;10.20;91.50;;;;;;5055804;28;20053;-39
2022/02/16 07:46:36;;;;;;;1.52;1.42;;;10.20;91.50;;;;;;5056021;28;20025;-39
2022/02/16 07:49:02;;;;;;;1.50;1.40;;;10.20;91.60;;;;;;5055584;28;20040;-38
2022/02/16 07:51:27;;;;;;;1.60;1.50;;;10.30;91.60;;;;;;5055727;28;20029;-39
2022/02/16 07:53:54;;;;;;;1.40;1.30;;;10.20;91.70;;;;;;5055670;28;20020;-39
2022/02/16 07:56:20;;;;;;;1.40;1.30;;;10.30;91.70;;;;;;5056029;28;20388;-39
2022/02/16 07:58:46;;;;;;;1.50;1.40;;;10.30;91.80;;;;;;5055551;28;20025;-39
2022/02/16 08:01:11;;;;;;;1.35;1.25;;;10.30;91.70;;;;;;5055535;28;20029;-40
2022/02/16 08:03:37;;;;;;;1.50;1.40;;;10.30;91.80;;;;;;5055680;28;20029;-40
2022/02/16 08:06:03;;;;;;;1.50;1.40;;;10.30;91.80;;;;;;5055323;28;20025;-40
2022/02/16 08:08:31;;;;;;;1.35;1.25;;;10.40;91.70;;;;;;5055470;28;20445;-40
2022/02/16 08:10:57;;;;;;;1.67;1.35;;;10.40;91.70;;;;;;5055553;28;20017;-40
2022/02/16 08:13:22;;;;;;;1.63;1.52;;;10.40;91.80;;;;;;5055275;28;20021;-40
2022/02/16 08:15:48;;;;;;;1.85;1.75;;;10.50;91.80;;;;;;5055228;28;20040;-39
2022/02/16 08:18:14;;;;;;;1.70;1.60;;;10.50;91.80;;;;;;5055182;28;20028;-40
2022/02/16 08:20:44;;;;;;;2.08;1.70;;;10.50;91.80;;;;;;5055140;28;20029;-40
2022/02/16 08:23:10;;;;;;;1.73;1.63;;;10.50;91.80;;;;;;5055266;28;20013;-40
2022/02/16 08:25:39;;;;;;;1.98;1.88;;;10.50;91.90;;;;;;5055452;28;20025;-40
2022/02/16 08:28:06;;;;;;;1.92;1.83;;;10.50;91.90;;;;;;5055092;28;20032;-40
2022/02/16 08:30:32;;;;;;;1.88;1.75;;;10.60;92.00;;;;;;5055268;28;20393;-40
2022/02/16 08:32:58;;;;;;;2.10;1.90;;;10.60;92.00;;;;;;5054959;28;20481;-40
2022/02/16 08:35:24;;;;;;;2.30;2.10;;;10.60;92.10;;;;;;5054893;28;20013;-40
2022/02/16 08:37:49;;;;;;;2.75;2.55;;;10.60;92.10;;;;;;5054748;28;20029;-40
2022/02/16 08:40:15;;;;;;;2.92;2.72;;;10.60;92.10;;;;;;5053437;28;20116;-40
2022/02/16 08:42:41;;;;;;;2.97;2.78;;;10.60;92.20;;;;;;5054887;28;20045;-40
2022/02/16 08:45:08;;;;;;;2.83;2.63;;;10.60;92.40;;;;;;5054914;28;20029;-39
2022/02/16 08:47:33;;;;;;;2.95;2.65;;;10.60;92.40;;;;;;5053467;28;20503;-39
2022/02/16 08:49:59;;;;;;;3.85;3.45;;;10.60;92.50;;;;;;5054730;28;20096;-39
2022/02/16 08:52:25;;;;;;;3.28;2.97;;;10.70;92.50;;;;;;5054542;28;20028;-39
2022/02/16 08:54:51;;;;;;;3.83;3.10;;;10.70;92.50;;;;;;5054975;28;20091;-39
2022/02/16 08:57:17;;;;;;;3.10;2.80;;;10.70;92.60;;;;;;5054571;28;20100;-40
2022/02/16 08:59:43;;;;;;;3.30;3.00;;;10.70;92.50;;;;;;5054495;28;20107;-40
2022/02/16 09:02:09;;;;;;;3.80;3.10;;;10.70;92.60;;;;;;5054675;28;20021;-39
2022/02/16 09:04:35;;;;;;;3.83;3.03;;;10.70;92.60;;;;;;5054442;28;20028;-39
2022/02/16 09:09:45;;;;;;;3.60;3.30;;;10.70;92.60;;;;;;5054289;28;20078;-39
2022/02/16 09:12:11;;;;;;;3.90;3.50;;;10.70;92.60;;;;;;5054313;28;20029;-38
2022/02/16 09:14:37;;;;;;;3.60;3.30;;;10.80;92.70;;;;;;5054496;28;20020;-40
2022/02/16 09:17:04;;;;;;;3.50;3.20;;;10.80;92.70;;;;;;5054296;28;20603;-40
2022/02/16 09:19:31;;;;;;;4.10;3.80;;;10.80;92.70;;;;;;5054251;28;20051;-40
2022/02/16 09:21:57;;;;;;;3.65;3.35;;;10.80;92.70;;;;;;5054192;28;20028;-40
2022/02/16 09:24:22;;;;;;;3.80;3.50;;;10.90;92.70;;;;;;5054188;28;20481;-41
2022/02/16 09:26:52;;;;;;;4.05;3.45;;;10.80;92.70;;;;;;5054335;28;20112;-40
2022/02/16 09:29:22;;;;;;;4.00;3.40;;;10.90;92.70;;;;;;5054027;28;20075;-39
2022/02/16 09:31:51;;;;;;;3.45;3.15;;;10.90;92.70;;;;;;5053828;28;20025;-40
2022/02/16 09:34:17;;;;;;;3.40;3.10;;;10.90;92.70;;;;;;5053892;28;20075;-40
2022/02/16 09:36:43;;;;;;;3.55;3.25;;;10.90;92.70;;;;;;5053634;28;20024;-39
2022/02/16 09:39:09;;;;;;;3.53;3.22;;;10.90;92.70;;;;;;5053550;28;20025;-38
2022/02/16 09:41:36;;;;;;;3.33;3.03;;;10.90;92.70;;;;;;5053624;28;20017;-40
2022/02/16 09:44:02;;;;;;;3.47;3.17;;;10.90;92.80;;;;;;5053375;28;20079;-40
2022/02/16 09:46:28;;;;;;;4.53;3.75;;;11.00;92.70;;;;;;5053572;28;20107;-41
2022/02/16 09:48:56;;;;;;;4.22;3.53;;;11.00;92.80;;;;;;5052043;28;20029;-40
2022/02/16 09:51:22;;;;;;;3.35;3.05;;;11.00;92.70;;;;;;5053532;28;20496;-40
2022/02/16 09:53:49;;;;;;;4.38;3.28;;;11.10;92.80;;;;;;5053743;28;20127;-40
2022/02/16 09:56:15;;;;;;;3.20;2.90;;;11.10;92.80;;;;;;5053352;28;20036;-39
2022/02/16 09:58:40;;;;;;;5.28;3.42;;;11.10;92.70;;;;;;5053482;28;20436;-40
2022/02/16 10:01:09;;;;;;;3.67;3.20;;;11.20;92.70;;;;;;5053398;28;20028;-41
2022/02/16 10:03:35;;;;;;;3.67;3.38;;;11.20;92.70;;;;;;5052639;28;20108;-40
2022/02/16 10:06:02;;;;;;;6.75;3.38;;;11.20;92.70;;;;;;5053306;28;20469;-40
2022/02/16 10:08:45;;;;;;;5.18;4.05;;;11.30;92.70;;;;;;5051535;28;20017;-43
2022/02/16 10:11:12;;;;;;;4.65;3.78;;;11.30;92.70;;;;;;5052982;28;20450;-39
2022/02/16 10:13:39;;;;;;;5.07;3.50;;;11.30;92.70;;;;;;5052680;28;20028;-38
2022/02/16 10:16:05;;;;;;;6.10;3.95;;;11.40;92.80;;;;;;5052833;28;20034;-39
2022/02/16 10:18:31;;;;;;;4.03;3.60;;;11.30;92.70;;;;;;5052946;28;20477;-43
2022/02/16 10:21:11;;;;;;;5.68;3.40;;;11.40;92.70;;;;;;5052934;28;20020;-38
2022/02/16 10:23:46;;;;;;;5.88;3.80;;;11.40;92.70;;;;;;5052951;28;20041;-38
2022/02/16 10:26:13;;;;;;;5.75;4.13;;;11.50;92.80;;;;;;5053099;28;20025;-39
2022/02/16 10:28:44;;;;;;;6.68;4.03;;;11.50;92.80;;;;;;5052635;28;20025;-39
2022/02/16 10:31:11;;;;;;;7.30;3.63;;;11.50;92.80;;;;;;5052773;28;20108;-39
2022/02/16 10:33:45;;;;;;;6.72;3.67;;;11.60;92.80;;;;;;5052497;28;20021;-39
2022/02/16 10:36:18;;;;;;;7.82;3.50;;;11.60;92.70;;;;;;5052674;28;20104;-39
2022/02/16 10:39:00;;;;;;;6.72;3.67;;;11.70;92.70;;;;;;5052801;28;20017;-38
2022/02/16 10:41:30;;;;;;;6.13;3.80;;;11.70;92.60;;;;;;5053255;28;20032;-38
2022/02/16 10:43:56;;;;;;;6.40;3.50;;;11.80;92.60;;;;;;5052514;28;20450;-38
2022/02/16 10:46:30;;;;;;;4.20;3.20;;;11.80;92.60;;;;;;5052571;28;20033;-38
2022/02/16 10:49:14;;;;;;;7.38;3.80;;;11.90;92.50;;;;;;5052466;28;20033;-38
2022/02/16 10:51:41;;;;;;;5.45;3.10;;;11.90;92.50;;;;;;5052728;28;20473;-39
2022/02/16 10:54:17;;;;;;;6.80;3.03;;;11.90;92.50;;;;;;5052608;28;20100;-38
2022/02/16 10:56:44;;;;;;;6.63;2.85;;;12.00;92.50;;;;;;5052956;28;20528;-38
2022/02/16 10:59:10;;;;;;;6.10;3.28;;;12.00;92.40;;;;;;5052976;28;20469;-38
2022/02/16 11:01:38;;;;;;;8.10;3.00;;;12.00;92.40;;;;;;5052570;28;20029;-38
2022/02/16 11:04:05;;;;;;;5.20;3.75;;;12.00;92.30;;;;;;5052555;28;20167;-39
2022/02/16 11:06:41;;;;;;;8.63;4.93;;;12.00;92.30;;;;;;5052357;28;20090;-39
2022/02/16 11:09:12;;;;;;;6.15;3.70;;;12.00;92.20;;;;;;5052617;28;20033;-37
2022/02/16 11:11:41;;;;;;;9.55;4.05;;;12.10;92.20;;;;;;5052610;28;20025;-39
2022/02/16 11:14:08;;;;;;;6.47;3.05;;;12.10;92.20;;;;;;5052682;28;20037;-38
2022/02/16 11:16:35;;;;;;;7.55;3.38;;;12.10;92.20;;;;;;5054401;28;20029;-38
2022/02/16 11:19:27;;;;;;;7.95;3.35;;;12.10;92.20;;;;;;5055106;28;20033;-38
2022/02/16 11:22:06;;;;;;;6.80;3.20;;;12.10;92.10;;;;;;5056444;28;20395;-37
2022/02/16 11:24:42;;;;;;;10.13;3.20;;;12.20;92.40;;;;;;5056315;28;20036;-37
2022/02/16 11:27:31;;;;;;;10.60;3.42;;;12.20;92.10;;;;;;5056285;28;20037;-37
2022/02/16 11:30:09;;;;;;;7.07;3.30;;;12.20;92.10;;;;;;5056224;28;20021;-38
2022/02/16 11:32:41;;;;;;;6.68;2.95;;;12.20;92.00;;;;;;5056280;28;20078;-38
2022/02/16 11:35:16;;;;;;;8.63;2.90;;;12.20;92.00;;;;;;5054831;28;20040;-38
2022/02/16 11:37:43;;;;;;;8.50;2.83;;;12.20;91.90;;;;;;5056441;28;20040;-37
2022/02/16 11:40:10;;;;;;;6.72;2.47;;;12.30;91.90;;;;;;5055146;28;20116;-38
2022/02/16 11:42:53;;;;;;;6.70;2.58;;;12.30;91.80;;;;;;5055789;28;20090;-38
2022/02/16 11:45:45;;;;;;;6.90;2.55;;;12.30;91.80;;;;;;5055870;28;20484;-42
2022/02/16 11:48:13;;;;;;;8.57;2.50;;;12.30;91.70;;;;;;5053070;28;20045;-38
2022/02/16 11:50:40;;;;;;;7.45;2.20;;;12.30;91.60;;;;;;5056063;28;20017;-37
2022/02/16 11:53:09;;;;;;;6.97;2.20;;;12.30;91.60;;;;;;5055667;28;20029;-38
2022/02/16 11:55:36;;;;;;;7.43;2.70;;;12.40;91.60;;;;;;5055681;28;20021;-37
2022/02/16 11:58:01;;;;;;;5.68;2.10;;;12.40;91.50;;;;;;5055867;28;20384;-39
2022/02/16 12:00:36;;;;;;;8.68;2.40;;;12.40;91.50;;;;;;5055640;28;20107;-39
2022/02/16 12:03:05;;;;;;;6.38;2.42;;;12.40;91.40;;;;;;5054355;28;20039;-39
2022/02/16 12:05:50;;;;;;;9.68;2.50;;;12.50;91.30;;;;;;5055515;28;20116;-39
2022/02/16 12:08:29;;;;;;;7.88;2.60;;;12.50;91.20;;;;;;5055538;28;20156;-38
2022/02/16 12:11:02;;;;;;;10.35;2.80;;;12.50;91.10;;;;;;5055824;28;20025;-39
2022/02/16 12:13:33;;;;;;;8.55;2.50;;;12.60;91.10;;;;;;5055484;28;20025;-39
2022/02/16 12:16:45;;;;;;;5.57;2.42;;;12.60;91.00;;;;;;5055463;28;20021;-38
2022/02/16 12:19:15;;;;;;;6.57;2.60;;;12.60;91.00;;;;;;5051747;28;20156;-39
2022/02/16 12:21:47;;;;;;;5.70;2.78;;;12.60;90.90;;;;;;5055288;28;20550;-39
2022/02/16 12:24:17;;;;;;;9.63;3.28;;;12.60;90.90;;;;;;5055390;28;20527;-40
2022/02/16 12:26:45;;;;;;;8.25;3.10;;;12.60;90.90;;;;;;5054812;28;20033;-38
2022/02/16 12:29:17;;;;;;;8.30;2.67;;;12.60;90.70;;;;;;5055380;28;20079;-39
2022/02/16 12:31:49;;;;;;;8.60;2.72;;;12.70;90.70;;;;;;5054857;28;20493;-39
2022/02/16 12:34:18;;;;;;;8.43;2.75;;;12.60;90.70;;;;;;5055176;28;20055;-38
2022/02/16 12:36:51;;;;;;;7.47;2.70;;;12.70;90.60;;;;;;5053578;28;20021;-38
2022/02/16 12:39:17;;;;;;;9.32;2.80;;;12.70;90.60;;;;;;5053808;28;20039;-38
2022/02/16 12:41:46;;;;;;;9.60;2.95;;;12.70;90.50;;;;;;5054892;28;20036;-37
2022/02/16 12:44:14;;;;;;;6.15;2.42;;;12.70;90.40;;;;;;5054519;28;20057;-39
2022/02/16 12:46:47;;;;;;;6.82;3.13;;;12.70;90.40;;;;;;5054672;28;20055;-40
2022/02/16 12:49:17;;;;;;;6.95;3.00;;;12.70;90.40;;;;;;5054937;28;20029;-38
2022/02/16 12:51:46;;;;;;;7.88;2.92;;;12.70;90.30;;;;;;5055039;28;20508;-40
2022/02/16 12:54:19;;;;;;;11.02;3.33;;;12.70;90.30;;;;;;5054633;28;20523;-40